sensor_id;sensor_type;location;lat;lon;timestamp;P1;durP1;ratioP1;P2;durP2;ratioP2
69369;SDS011;56530;42.640;23.372;2023-05-07T00:01:49;6.73;;;4.03;;
69369;SDS011;56530;42.640;23.372;2023-05-07T00:04:14;5.50;;;4.03;;
69369;SDS011;56530;42.640;23.372;2023-05-07T00:06:40;6.57;;;4.23;;
69369;SDS011;56530;42.640;23.372;2023-05-07T00:09:06;6.23;;;4.20;;
69369;SDS011;56530;42.640;23.372;2023-05-07T00:11:31;8.85;;;4.05;;
69369;SDS011;56530;42.640;23.372;2023-05-07T00:13:57;6.53;;;4.20;;
69369;SDS011;56530;42.640;23.372;2023-05-07T00:16:23;6.43;;;4.30;;
69369;SDS011;56530;42.640;23.372;2023-05-07T00:18:48;4.50;;;3.97;;
69369;SDS011;56530;42.640;23.372;2023-05-07T00:21:13;5.43;;;3.80;;
69369;SDS011;56530;42.640;23.372;2023-05-07T00:23:39;6.07;;;4.50;;
69369;SDS011;56530;42.640;23.372;2023-05-07T00:26:04;5.43;;;4.32;;
69369;SDS011;56530;42.640;23.372;2023-05-07T00:28:30;5.10;;;4.20;;
69369;SDS011;56530;42.640;23.372;2023-05-07T00:30:55;5.27;;;4.77;;
69369;SDS011;56530;42.640;23.372;2023-05-07T00:33:21;7.70;;;6.03;;
69369;SDS011;56530;42.640;23.372;2023-05-07T00:35:47;9.50;;;6.43;;
69369;SDS011;56530;42.640;23.372;2023-05-07T00:38:12;9.80;;;7.30;;
69369;SDS011;56530;42.640;23.372;2023-05-07T00:40:38;10.57;;;7.80;;
69369;SDS011;56530;42.640;23.372;2023-05-07T00:43:03;10.37;;;7.80;;
69369;SDS011;56530;42.640;23.372;2023-05-07T00:45:29;10.27;;;7.03;;
69369;SDS011;56530;42.640;23.372;2023-05-07T00:47:58;9.10;;;7.40;;
69369;SDS011;56530;42.640;23.372;2023-05-07T00:50:25;12.13;;;7.88;;
69369;SDS011;56530;42.640;23.372;2023-05-07T00:52:51;10.52;;;8.07;;
69369;SDS011;56530;42.640;23.372;2023-05-07T00:55:17;11.07;;;7.60;;
69369;SDS011;56530;42.640;23.372;2023-05-07T00:57:42;9.40;;;5.47;;
69369;SDS011;56530;42.640;23.372;2023-05-07T01:00:08;6.57;;;4.55;;
69369;SDS011;56530;42.640;23.372;2023-05-07T01:02:35;5.00;;;4.05;;
69369;SDS011;56530;42.640;23.372;2023-05-07T01:05:01;6.85;;;4.70;;
69369;SDS011;56530;42.640;23.372;2023-05-07T01:07:28;6.28;;;3.97;;
69369;SDS011;56530;42.640;23.372;2023-05-07T01:09:53;5.72;;;4.00;;
69369;SDS011;56530;42.640;23.372;2023-05-07T01:12:19;4.53;;;4.13;;
69369;SDS011;56530;42.640;23.372;2023-05-07T01:14:44;6.67;;;4.37;;
69369;SDS011;56530;42.640;23.372;2023-05-07T01:17:10;4.67;;;4.27;;
69369;SDS011;56530;42.640;23.372;2023-05-07T01:19:35;5.53;;;4.55;;
69369;SDS011;56530;42.640;23.372;2023-05-07T01:22:02;4.87;;;4.47;;
69369;SDS011;56530;42.640;23.372;2023-05-07T01:24:32;7.90;;;4.90;;
69369;SDS011;56530;42.640;23.372;2023-05-07T01:26:58;7.60;;;4.65;;
69369;SDS011;56530;42.640;23.372;2023-05-07T01:29:24;5.50;;;4.68;;
69369;SDS011;56530;42.640;23.372;2023-05-07T01:31:49;7.10;;;5.20;;
69369;SDS011;56530;42.640;23.372;2023-05-07T01:34:15;6.15;;;4.90;;
69369;SDS011;56530;42.640;23.372;2023-05-07T01:36:42;5.67;;;5.07;;
69369;SDS011;56530;42.640;23.372;2023-05-07T01:39:08;6.70;;;4.97;;
69369;SDS011;56530;42.640;23.372;2023-05-07T01:41:34;7.13;;;6.15;;
69369;SDS011;56530;42.640;23.372;2023-05-07T01:44:00;7.00;;;6.25;;
69369;SDS011;56530;42.640;23.372;2023-05-07T01:46:26;8.15;;;6.65;;
69369;SDS011;56530;42.640;23.372;2023-05-07T01:48:52;8.07;;;7.38;;
69369;SDS011;56530;42.640;23.372;2023-05-07T01:51:18;10.40;;;7.93;;
69369;SDS011;56530;42.640;23.372;2023-05-07T01:53:44;9.68;;;7.47;;
69369;SDS011;56530;42.640;23.372;2023-05-07T01:56:12;7.95;;;7.18;;
69369;SDS011;56530;42.640;23.372;2023-05-07T01:58:38;8.17;;;7.23;;
69369;SDS011;56530;42.640;23.372;2023-05-07T02:01:03;9.37;;;7.43;;
69369;SDS011;56530;42.640;23.372;2023-05-07T02:03:28;10.07;;;7.63;;
69369;SDS011;56530;42.640;23.372;2023-05-07T02:05:54;9.43;;;8.48;;
69369;SDS011;56530;42.640;23.372;2023-05-07T02:08:19;8.80;;;7.90;;
69369;SDS011;56530;42.640;23.372;2023-05-07T02:10:45;10.40;;;8.03;;
69369;SDS011;56530;42.640;23.372;2023-05-07T02:13:10;8.60;;;7.77;;
69369;SDS011;56530;42.640;23.372;2023-05-07T02:15:36;10.15;;;8.02;;
69369;SDS011;56530;42.640;23.372;2023-05-07T02:18:05;8.73;;;7.93;;
69369;SDS011;56530;42.640;23.372;2023-05-07T02:20:31;9.02;;;7.95;;
69369;SDS011;56530;42.640;23.372;2023-05-07T02:22:57;10.10;;;8.20;;
69369;SDS011;56530;42.640;23.372;2023-05-07T02:25:22;9.05;;;7.68;;
69369;SDS011;56530;42.640;23.372;2023-05-07T02:27:48;8.63;;;7.80;;
69369;SDS011;56530;42.640;23.372;2023-05-07T02:30:13;9.60;;;8.33;;
69369;SDS011;56530;42.640;23.372;2023-05-07T02:32:39;8.32;;;7.53;;
69369;SDS011;56530;42.640;23.372;2023-05-07T02:35:05;9.27;;;8.27;;
69369;SDS011;56530;42.640;23.372;2023-05-07T02:37:30;9.52;;;8.50;;
69369;SDS011;56530;42.640;23.372;2023-05-07T02:39:56;10.27;;;7.80;;
69369;SDS011;56530;42.640;23.372;2023-05-07T02:42:21;9.57;;;8.40;;
69369;SDS011;56530;42.640;23.372;2023-05-07T02:44:46;10.15;;;8.32;;
69369;SDS011;56530;42.640;23.372;2023-05-07T02:47:12;9.77;;;8.40;;
69369;SDS011;56530;42.640;23.372;2023-05-07T02:49:39;11.00;;;8.82;;
69369;SDS011;56530;42.640;23.372;2023-05-07T02:52:04;9.80;;;8.80;;
69369;SDS011;56530;42.640;23.372;2023-05-07T02:54:30;9.67;;;8.80;;
69369;SDS011;56530;42.640;23.372;2023-05-07T02:56:55;12.67;;;10.27;;
69369;SDS011;56530;42.640;23.372;2023-05-07T02:59:21;10.70;;;9.60;;
69369;SDS011;56530;42.640;23.372;2023-05-07T03:01:46;12.50;;;9.85;;
69369;SDS011;56530;42.640;23.372;2023-05-07T03:04:13;13.43;;;11.38;;
69369;SDS011;56530;42.640;23.372;2023-05-07T03:06:38;14.50;;;12.10;;
69369;SDS011;56530;42.640;23.372;2023-05-07T03:09:04;13.40;;;11.75;;
69369;SDS011;56530;42.640;23.372;2023-05-07T03:11:29;13.87;;;12.57;;
69369;SDS011;56530;42.640;23.372;2023-05-07T03:13:55;13.27;;;12.07;;
69369;SDS011;56530;42.640;23.372;2023-05-07T03:16:20;13.93;;;12.30;;
69369;SDS011;56530;42.640;23.372;2023-05-07T03:18:46;13.87;;;12.10;;
69369;SDS011;56530;42.640;23.372;2023-05-07T03:21:11;13.90;;;12.27;;
69369;SDS011;56530;42.640;23.372;2023-05-07T03:23:37;13.53;;;12.17;;
69369;SDS011;56530;42.640;23.372;2023-05-07T03:26:02;15.00;;;12.20;;
69369;SDS011;56530;42.640;23.372;2023-05-07T03:28:28;13.73;;;12.30;;
69369;SDS011;56530;42.640;23.372;2023-05-07T03:30:53;12.80;;;11.43;;
69369;SDS011;56530;42.640;23.372;2023-05-07T03:33:18;13.77;;;12.07;;
69369;SDS011;56530;42.640;23.372;2023-05-07T03:35:44;12.70;;;11.50;;
69369;SDS011;56530;42.640;23.372;2023-05-07T03:38:09;13.10;;;11.10;;
69369;SDS011;56530;42.640;23.372;2023-05-07T03:40:36;11.95;;;10.73;;
69369;SDS011;56530;42.640;23.372;2023-05-07T03:43:01;12.40;;;11.10;;
69369;SDS011;56530;42.640;23.372;2023-05-07T03:45:26;11.40;;;10.40;;
69369;SDS011;56530;42.640;23.372;2023-05-07T03:47:52;14.27;;;10.50;;
69369;SDS011;56530;42.640;23.372;2023-05-07T03:50:17;11.37;;;10.17;;
69369;SDS011;56530;42.640;23.372;2023-05-07T03:52:43;10.30;;;9.23;;
69369;SDS011;56530;42.640;23.372;2023-05-07T03:55:09;11.67;;;8.80;;
69369;SDS011;56530;42.640;23.372;2023-05-07T03:57:34;11.27;;;9.00;;
69369;SDS011;56530;42.640;23.372;2023-05-07T04:00:00;8.87;;;8.03;;
69369;SDS011;56530;42.640;23.372;2023-05-07T04:02:25;10.30;;;8.73;;
69369;SDS011;56530;42.640;23.372;2023-05-07T04:04:51;8.83;;;8.03;;
69369;SDS011;56530;42.640;23.372;2023-05-07T04:07:17;10.68;;;8.80;;
69369;SDS011;56530;42.640;23.372;2023-05-07T04:09:42;8.47;;;7.70;;
69369;SDS011;56530;42.640;23.372;2023-05-07T04:12:07;10.30;;;8.33;;
69369;SDS011;56530;42.640;23.372;2023-05-07T04:14:33;14.23;;;8.63;;
69369;SDS011;56530;42.640;23.372;2023-05-07T04:16:58;10.05;;;9.05;;
69369;SDS011;56530;42.640;23.372;2023-05-07T04:19:24;9.23;;;8.27;;
69369;SDS011;56530;42.640;23.372;2023-05-07T04:21:50;10.13;;;8.97;;
69369;SDS011;56530;42.640;23.372;2023-05-07T04:24:15;10.07;;;9.13;;
69369;SDS011;56530;42.640;23.372;2023-05-07T04:26:41;11.57;;;9.23;;
69369;SDS011;56530;42.640;23.372;2023-05-07T04:29:06;10.03;;;9.17;;
69369;SDS011;56530;42.640;23.372;2023-05-07T04:31:31;9.97;;;8.40;;
69369;SDS011;56530;42.640;23.372;2023-05-07T04:33:57;8.50;;;7.70;;
69369;SDS011;56530;42.640;23.372;2023-05-07T04:36:22;8.77;;;7.32;;
69369;SDS011;56530;42.640;23.372;2023-05-07T04:38:48;9.53;;;7.80;;
69369;SDS011;56530;42.640;23.372;2023-05-07T04:41:13;8.77;;;7.60;;
69369;SDS011;56530;42.640;23.372;2023-05-07T04:43:39;9.83;;;7.33;;
69369;SDS011;56530;42.640;23.372;2023-05-07T04:46:05;7.60;;;6.90;;
69369;SDS011;56530;42.640;23.372;2023-05-07T04:48:30;7.82;;;6.97;;
69369;SDS011;56530;42.640;23.372;2023-05-07T04:50:55;8.20;;;7.20;;
69369;SDS011;56530;42.640;23.372;2023-05-07T04:53:21;8.50;;;7.60;;
69369;SDS011;56530;42.640;23.372;2023-05-07T04:55:47;8.95;;;6.70;;
69369;SDS011;56530;42.640;23.372;2023-05-07T04:58:12;10.57;;;7.20;;
69369;SDS011;56530;42.640;23.372;2023-05-07T05:00:38;7.83;;;6.73;;
69369;SDS011;56530;42.640;23.372;2023-05-07T05:03:04;8.77;;;7.22;;
69369;SDS011;56530;42.640;23.372;2023-05-07T05:05:31;8.85;;;6.75;;
69369;SDS011;56530;42.640;23.372;2023-05-07T05:07:56;8.05;;;7.28;;
69369;SDS011;56530;42.640;23.372;2023-05-07T05:10:22;9.60;;;7.20;;
69369;SDS011;56530;42.640;23.372;2023-05-07T05:12:47;8.10;;;7.30;;
69369;SDS011;56530;42.640;23.372;2023-05-07T05:15:13;8.83;;;7.10;;
69369;SDS011;56530;42.640;23.372;2023-05-07T05:17:38;8.53;;;7.33;;
69369;SDS011;56530;42.640;23.372;2023-05-07T05:20:04;7.97;;;7.18;;
69369;SDS011;56530;42.640;23.372;2023-05-07T05:22:30;8.88;;;7.60;;
69369;SDS011;56530;42.640;23.372;2023-05-07T05:24:56;8.77;;;7.97;;
69369;SDS011;56530;42.640;23.372;2023-05-07T05:27:22;9.20;;;8.25;;
69369;SDS011;56530;42.640;23.372;2023-05-07T05:29:47;11.82;;;9.30;;
69369;SDS011;56530;42.640;23.372;2023-05-07T05:32:12;9.95;;;8.90;;
69369;SDS011;56530;42.640;23.372;2023-05-07T05:34:38;12.47;;;9.47;;
69369;SDS011;56530;42.640;23.372;2023-05-07T05:37:03;10.00;;;8.80;;
69369;SDS011;56530;42.640;23.372;2023-05-07T05:39:29;10.43;;;9.53;;
69369;SDS011;56530;42.640;23.372;2023-05-07T05:41:54;10.43;;;9.43;;
69369;SDS011;56530;42.640;23.372;2023-05-07T05:44:19;10.90;;;9.07;;
69369;SDS011;56530;42.640;23.372;2023-05-07T05:46:45;10.93;;;9.70;;
69369;SDS011;56530;42.640;23.372;2023-05-07T05:49:10;10.27;;;9.23;;
69369;SDS011;56530;42.640;23.372;2023-05-07T05:51:35;10.73;;;9.60;;
69369;SDS011;56530;42.640;23.372;2023-05-07T05:54:01;12.67;;;9.83;;
69369;SDS011;56530;42.640;23.372;2023-05-07T05:56:26;12.17;;;9.57;;
69369;SDS011;56530;42.640;23.372;2023-05-07T05:58:52;10.93;;;8.70;;
69369;SDS011;56530;42.640;23.372;2023-05-07T06:01:17;12.13;;;10.03;;
69369;SDS011;56530;42.640;23.372;2023-05-07T06:03:43;12.10;;;9.52;;
69369;SDS011;56530;42.640;23.372;2023-05-07T06:06:09;9.97;;;9.03;;
69369;SDS011;56530;42.640;23.372;2023-05-07T06:08:34;10.13;;;9.07;;
69369;SDS011;56530;42.640;23.372;2023-05-07T06:11:00;9.53;;;8.63;;
69369;SDS011;56530;42.640;23.372;2023-05-07T06:13:26;10.93;;;8.97;;
69369;SDS011;56530;42.640;23.372;2023-05-07T06:15:51;10.40;;;7.77;;
69369;SDS011;56530;42.640;23.372;2023-05-07T06:18:17;9.60;;;8.27;;
69369;SDS011;56530;42.640;23.372;2023-05-07T06:20:42;9.63;;;7.70;;
69369;SDS011;56530;42.640;23.372;2023-05-07T06:23:07;8.43;;;7.47;;
69369;SDS011;56530;42.640;23.372;2023-05-07T06:25:33;8.50;;;7.70;;
69369;SDS011;56530;42.640;23.372;2023-05-07T06:27:58;10.25;;;8.40;;
69369;SDS011;56530;42.640;23.372;2023-05-07T06:30:23;9.25;;;8.30;;
69369;SDS011;56530;42.640;23.372;2023-05-07T06:32:49;8.98;;;8.07;;
69369;SDS011;56530;42.640;23.372;2023-05-07T06:35:14;9.57;;;8.03;;
69369;SDS011;56530;42.640;23.372;2023-05-07T06:37:40;8.57;;;7.67;;
69369;SDS011;56530;42.640;23.372;2023-05-07T06:40:07;9.63;;;8.18;;
69369;SDS011;56530;42.640;23.372;2023-05-07T06:42:33;8.57;;;7.78;;
69369;SDS011;56530;42.640;23.372;2023-05-07T06:44:59;11.27;;;7.47;;
69369;SDS011;56530;42.640;23.372;2023-05-07T06:47:24;11.40;;;10.30;;
69369;SDS011;56530;42.640;23.372;2023-05-07T06:49:50;9.43;;;8.48;;
69369;SDS011;56530;42.640;23.372;2023-05-07T06:52:15;11.50;;;8.45;;
69369;SDS011;56530;42.640;23.372;2023-05-07T06:54:41;9.93;;;8.57;;
69369;SDS011;56530;42.640;23.372;2023-05-07T06:57:06;8.55;;;7.75;;
69369;SDS011;56530;42.640;23.372;2023-05-07T06:59:32;11.85;;;7.57;;
69369;SDS011;56530;42.640;23.372;2023-05-07T07:01:57;9.93;;;8.43;;
69369;SDS011;56530;42.640;23.372;2023-05-07T07:04:22;8.80;;;7.90;;
69369;SDS011;56530;42.640;23.372;2023-05-07T07:06:49;8.70;;;7.80;;
69369;SDS011;56530;42.640;23.372;2023-05-07T07:09:14;9.13;;;8.23;;
69369;SDS011;56530;42.640;23.372;2023-05-07T07:11:40;9.37;;;8.53;;
69369;SDS011;56530;42.640;23.372;2023-05-07T07:14:05;9.03;;;8.17;;
69369;SDS011;56530;42.640;23.372;2023-05-07T07:16:31;10.30;;;9.20;;
69369;SDS011;56530;42.640;23.372;2023-05-07T07:18:56;12.57;;;8.73;;
69369;SDS011;56530;42.640;23.372;2023-05-07T07:21:21;9.03;;;8.23;;
69369;SDS011;56530;42.640;23.372;2023-05-07T07:23:47;8.50;;;7.60;;
69369;SDS011;56530;42.640;23.372;2023-05-07T07:26:12;9.05;;;6.90;;
69369;SDS011;56530;42.640;23.372;2023-05-07T07:28:47;7.87;;;7.00;;
69369;SDS011;56530;42.640;23.372;2023-05-07T07:31:12;9.15;;;7.05;;
69369;SDS011;56530;42.640;23.372;2023-05-07T07:33:38;7.80;;;6.75;;
69369;SDS011;56530;42.640;23.372;2023-05-07T07:36:04;10.43;;;6.33;;
69369;SDS011;56530;42.640;23.372;2023-05-07T07:38:30;6.90;;;6.30;;
69369;SDS011;56530;42.640;23.372;2023-05-07T07:40:56;6.77;;;5.47;;
69369;SDS011;56530;42.640;23.372;2023-05-07T07:43:21;7.75;;;6.68;;
69369;SDS011;56530;42.640;23.372;2023-05-07T07:45:46;7.13;;;6.37;;
69369;SDS011;56530;42.640;23.372;2023-05-07T07:48:12;7.97;;;6.60;;
69369;SDS011;56530;42.640;23.372;2023-05-07T07:50:37;7.93;;;6.40;;
69369;SDS011;56530;42.640;23.372;2023-05-07T07:53:03;6.40;;;5.70;;
69369;SDS011;56530;42.640;23.372;2023-05-07T07:55:28;7.17;;;5.90;;
69369;SDS011;56530;42.640;23.372;2023-05-07T07:57:56;10.57;;;7.35;;
69369;SDS011;56530;42.640;23.372;2023-05-07T08:00:21;10.77;;;7.45;;
69369;SDS011;56530;42.640;23.372;2023-05-07T08:02:46;8.50;;;6.80;;
69369;SDS011;56530;42.640;23.372;2023-05-07T08:05:12;7.10;;;6.23;;
69369;SDS011;56530;42.640;23.372;2023-05-07T08:07:37;7.27;;;6.13;;
69369;SDS011;56530;42.640;23.372;2023-05-07T08:10:03;10.40;;;5.72;;
69369;SDS011;56530;42.640;23.372;2023-05-07T08:12:29;7.82;;;5.38;;
69369;SDS011;56530;42.640;23.372;2023-05-07T08:14:54;13.40;;;6.32;;
69369;SDS011;56530;42.640;23.372;2023-05-07T08:17:19;12.38;;;6.50;;
69369;SDS011;56530;42.640;23.372;2023-05-07T08:19:47;10.90;;;6.63;;
69369;SDS011;56530;42.640;23.372;2023-05-07T08:22:13;8.55;;;6.93;;
69369;SDS011;56530;42.640;23.372;2023-05-07T08:24:38;7.90;;;6.68;;
69369;SDS011;56530;42.640;23.372;2023-05-07T08:27:04;12.33;;;7.10;;
69369;SDS011;56530;42.640;23.372;2023-05-07T08:29:29;7.57;;;6.83;;
69369;SDS011;56530;42.640;23.372;2023-05-07T08:31:55;8.63;;;7.00;;
69369;SDS011;56530;42.640;23.372;2023-05-07T08:34:21;11.18;;;6.63;;
69369;SDS011;56530;42.640;23.372;2023-05-07T08:36:47;9.47;;;7.17;;
69369;SDS011;56530;42.640;23.372;2023-05-07T08:39:13;10.20;;;6.82;;
69369;SDS011;56530;42.640;23.372;2023-05-07T08:41:40;10.93;;;7.50;;
69369;SDS011;56530;42.640;23.372;2023-05-07T08:44:13;7.03;;;6.30;;
69369;SDS011;56530;42.640;23.372;2023-05-07T08:46:39;9.10;;;6.13;;
69369;SDS011;56530;42.640;23.372;2023-05-07T08:49:07;9.20;;;6.72;;
69369;SDS011;56530;42.640;23.372;2023-05-07T08:51:32;9.60;;;5.83;;
69369;SDS011;56530;42.640;23.372;2023-05-07T08:53:57;8.70;;;6.10;;
69369;SDS011;56530;42.640;23.372;2023-05-07T08:56:23;9.30;;;6.00;;
69369;SDS011;56530;42.640;23.372;2023-05-07T08:58:50;7.57;;;6.10;;
69369;SDS011;56530;42.640;23.372;2023-05-07T09:01:16;7.22;;;5.22;;
69369;SDS011;56530;42.640;23.372;2023-05-07T09:03:44;5.93;;;4.87;;
69369;SDS011;56530;42.640;23.372;2023-05-07T09:06:10;7.33;;;4.57;;
69369;SDS011;56530;42.640;23.372;2023-05-07T09:08:36;11.33;;;5.20;;
69369;SDS011;56530;42.640;23.372;2023-05-07T09:11:01;6.93;;;5.87;;
69369;SDS011;56530;42.640;23.372;2023-05-07T09:13:27;6.95;;;5.35;;
69369;SDS011;56530;42.640;23.372;2023-05-07T09:15:53;10.20;;;6.90;;
69369;SDS011;56530;42.640;23.372;2023-05-07T09:18:18;9.80;;;6.20;;
69369;SDS011;56530;42.640;23.372;2023-05-07T09:20:44;7.73;;;5.93;;
69369;SDS011;56530;42.640;23.372;2023-05-07T09:23:09;7.87;;;5.57;;
69369;SDS011;56530;42.640;23.372;2023-05-07T09:25:35;9.47;;;5.67;;
69369;SDS011;56530;42.640;23.372;2023-05-07T09:28:02;7.15;;;5.45;;
69369;SDS011;56530;42.640;23.372;2023-05-07T09:30:29;11.15;;;6.07;;
69369;SDS011;56530;42.640;23.372;2023-05-07T09:32:55;5.50;;;5.00;;
69369;SDS011;56530;42.640;23.372;2023-05-07T09:35:21;8.87;;;5.23;;
69369;SDS011;56530;42.640;23.372;2023-05-07T09:37:49;5.93;;;5.32;;
69369;SDS011;56530;42.640;23.372;2023-05-07T09:40:24;6.20;;;4.93;;
69369;SDS011;56530;42.640;23.372;2023-05-07T09:42:53;5.00;;;4.32;;
69369;SDS011;56530;42.640;23.372;2023-05-07T09:45:22;5.53;;;4.90;;
69369;SDS011;56530;42.640;23.372;2023-05-07T09:47:55;5.50;;;5.00;;
69369;SDS011;56530;42.640;23.372;2023-05-07T09:50:22;6.13;;;5.30;;
69369;SDS011;56530;42.640;23.372;2023-05-07T09:52:52;11.32;;;5.20;;
69369;SDS011;56530;42.640;23.372;2023-05-07T09:55:17;7.80;;;4.97;;
69369;SDS011;56530;42.640;23.372;2023-05-07T09:57:43;8.10;;;5.18;;
69369;SDS011;56530;42.640;23.372;2023-05-07T10:00:09;7.32;;;5.35;;
69369;SDS011;56530;42.640;23.372;2023-05-07T10:02:35;7.18;;;4.78;;
69369;SDS011;56530;42.640;23.372;2023-05-07T10:05:01;5.70;;;4.85;;
69369;SDS011;56530;42.640;23.372;2023-05-07T10:07:28;5.50;;;4.80;;
69369;SDS011;56530;42.640;23.372;2023-05-07T10:09:53;5.13;;;4.47;;
69369;SDS011;56530;42.640;23.372;2023-05-07T10:12:19;6.00;;;5.30;;
69369;SDS011;56530;42.640;23.372;2023-05-07T10:14:45;8.63;;;4.83;;
69369;SDS011;56530;42.640;23.372;2023-05-07T10:17:12;9.20;;;4.78;;
69369;SDS011;56530;42.640;23.372;2023-05-07T10:19:38;6.38;;;4.53;;
69369;SDS011;56530;42.640;23.372;2023-05-07T10:22:05;6.67;;;4.37;;
69369;SDS011;56530;42.640;23.372;2023-05-07T10:24:31;9.53;;;5.50;;
69369;SDS011;56530;42.640;23.372;2023-05-07T10:26:59;6.60;;;5.45;;
69369;SDS011;56530;42.640;23.372;2023-05-07T10:34:44;5.68;;;5.05;;
69369;SDS011;56530;42.640;23.372;2023-05-07T10:37:12;7.40;;;5.07;;
69369;SDS011;56530;42.640;23.372;2023-05-07T10:39:38;6.78;;;4.80;;
69369;SDS011;56530;42.640;23.372;2023-05-07T10:42:07;8.00;;;4.40;;
69369;SDS011;56530;42.640;23.372;2023-05-07T10:44:33;7.73;;;4.40;;
69369;SDS011;56530;42.640;23.372;2023-05-07T10:47:18;6.05;;;4.28;;
69369;SDS011;56530;42.640;23.372;2023-05-07T10:52:13;5.90;;;4.50;;
69369;SDS011;56530;42.640;23.372;2023-05-07T10:57:40;7.82;;;4.50;;
69369;SDS011;56530;42.640;23.372;2023-05-07T11:05:23;6.57;;;4.60;;
69369;SDS011;56530;42.640;23.372;2023-05-07T11:07:56;5.10;;;4.60;;
69369;SDS011;56530;42.640;23.372;2023-05-07T11:10:22;6.05;;;4.65;;
69369;SDS011;56530;42.640;23.372;2023-05-07T11:12:48;5.43;;;4.40;;
69369;SDS011;56530;42.640;23.372;2023-05-07T11:15:15;4.53;;;4.00;;
69369;SDS011;56530;42.640;23.372;2023-05-07T11:17:59;5.90;;;4.35;;
69369;SDS011;56530;42.640;23.372;2023-05-07T11:25:59;4.55;;;4.15;;
69369;SDS011;56530;42.640;23.372;2023-05-07T11:28:42;6.07;;;4.35;;
69369;SDS011;56530;42.640;23.372;2023-05-07T11:31:08;5.40;;;4.15;;
69369;SDS011;56530;42.640;23.372;2023-05-07T11:33:34;6.00;;;5.10;;
69369;SDS011;56530;42.640;23.372;2023-05-07T11:36:00;4.70;;;4.27;;
69369;SDS011;56530;42.640;23.372;2023-05-07T11:38:28;5.67;;;4.20;;
69369;SDS011;56530;42.640;23.372;2023-05-07T11:40:59;5.93;;;4.22;;
69369;SDS011;56530;42.640;23.372;2023-05-07T11:43:29;4.70;;;4.32;;
69369;SDS011;56530;42.640;23.372;2023-05-07T11:45:54;4.57;;;4.13;;
69369;SDS011;56530;42.640;23.372;2023-05-07T11:48:20;5.75;;;4.38;;
69369;SDS011;56530;42.640;23.372;2023-05-07T11:50:53;5.35;;;4.88;;
69369;SDS011;56530;42.640;23.372;2023-05-07T11:53:24;6.30;;;5.13;;
69369;SDS011;56530;42.640;23.372;2023-05-07T11:55:56;7.93;;;5.15;;
69369;SDS011;56530;42.640;23.372;2023-05-07T11:58:23;5.03;;;4.53;;
69369;SDS011;56530;42.640;23.372;2023-05-07T12:00:50;5.63;;;4.60;;
69369;SDS011;56530;42.640;23.372;2023-05-07T12:03:19;4.50;;;4.10;;
69369;SDS011;56530;42.640;23.372;2023-05-07T12:05:45;5.50;;;5.00;;
69369;SDS011;56530;42.640;23.372;2023-05-07T12:08:18;5.40;;;4.90;;
69369;SDS011;56530;42.640;23.372;2023-05-07T12:10:44;6.25;;;4.40;;
69369;SDS011;56530;42.640;23.372;2023-05-07T12:13:17;7.63;;;5.20;;
69369;SDS011;56530;42.640;23.372;2023-05-07T12:15:43;5.85;;;4.55;;
69369;SDS011;56530;42.640;23.372;2023-05-07T12:18:10;5.55;;;4.30;;
69369;SDS011;56530;42.640;23.372;2023-05-07T12:20:37;6.15;;;4.57;;
69369;SDS011;56530;42.640;23.372;2023-05-07T12:23:02;6.90;;;4.70;;
69369;SDS011;56530;42.640;23.372;2023-05-07T12:25:31;5.07;;;4.53;;
69369;SDS011;56530;42.640;23.372;2023-05-07T12:28:00;4.95;;;4.45;;
69369;SDS011;56530;42.640;23.372;2023-05-07T12:30:26;7.30;;;4.75;;
69369;SDS011;56530;42.640;23.372;2023-05-07T12:32:54;6.27;;;4.63;;
69369;SDS011;56530;42.640;23.372;2023-05-07T12:35:29;5.13;;;4.00;;
69369;SDS011;56530;42.640;23.372;2023-05-07T12:37:56;5.30;;;4.15;;
69369;SDS011;56530;42.640;23.372;2023-05-07T12:40:24;4.93;;;4.50;;
69369;SDS011;56530;42.640;23.372;2023-05-07T12:42:52;5.10;;;4.70;;
69369;SDS011;56530;42.640;23.372;2023-05-07T12:45:19;8.32;;;5.15;;
69369;SDS011;56530;42.640;23.372;2023-05-07T12:47:45;4.90;;;4.37;;
69369;SDS011;56530;42.640;23.372;2023-05-07T12:50:11;6.30;;;5.03;;
69369;SDS011;56530;42.640;23.372;2023-05-07T12:52:36;5.53;;;3.92;;
69369;SDS011;56530;42.640;23.372;2023-05-07T12:55:05;5.22;;;4.00;;
69369;SDS011;56530;42.640;23.372;2023-05-07T12:57:37;3.92;;;3.63;;
69369;SDS011;56530;42.640;23.372;2023-05-07T13:00:03;6.53;;;4.18;;
69369;SDS011;56530;42.640;23.372;2023-05-07T13:02:33;4.10;;;3.70;;
69369;SDS011;56530;42.640;23.372;2023-05-07T13:04:59;4.70;;;3.88;;
69369;SDS011;56530;42.640;23.372;2023-05-07T13:07:25;5.87;;;4.07;;
69369;SDS011;56530;42.640;23.372;2023-05-07T13:09:50;6.70;;;3.50;;
69369;SDS011;56530;42.640;23.372;2023-05-07T13:12:15;6.33;;;3.97;;
69369;SDS011;56530;42.640;23.372;2023-05-07T13:14:41;4.07;;;3.67;;
69369;SDS011;56530;42.640;23.372;2023-05-07T13:17:06;5.27;;;3.77;;
69369;SDS011;56530;42.640;23.372;2023-05-07T13:19:32;3.93;;;3.63;;
69369;SDS011;56530;42.640;23.372;2023-05-07T13:21:57;3.87;;;3.23;;
69369;SDS011;56530;42.640;23.372;2023-05-07T13:24:22;3.50;;;3.20;;
69369;SDS011;56530;42.640;23.372;2023-05-07T13:26:48;4.17;;;3.20;;
69369;SDS011;56530;42.640;23.372;2023-05-07T13:29:13;4.30;;;3.30;;
69369;SDS011;56530;42.640;23.372;2023-05-07T13:31:38;3.47;;;3.17;;
69369;SDS011;56530;42.640;23.372;2023-05-07T13:34:07;5.80;;;3.22;;
69369;SDS011;56530;42.640;23.372;2023-05-07T13:36:33;5.18;;;3.60;;
69369;SDS011;56530;42.640;23.372;2023-05-07T13:39:02;4.82;;;3.08;;
69369;SDS011;56530;42.640;23.372;2023-05-07T13:41:28;2.97;;;2.78;;
69369;SDS011;56530;42.640;23.372;2023-05-07T13:43:54;3.97;;;3.17;;
69369;SDS011;56530;42.640;23.372;2023-05-07T13:46:19;6.43;;;3.00;;
69369;SDS011;56530;42.640;23.372;2023-05-07T13:48:44;4.00;;;3.50;;
69369;SDS011;56530;42.640;23.372;2023-05-07T13:51:10;5.27;;;3.63;;
69369;SDS011;56530;42.640;23.372;2023-05-07T13:53:35;4.10;;;3.80;;
69369;SDS011;56530;42.640;23.372;2023-05-07T13:56:01;3.97;;;3.67;;
69369;SDS011;56530;42.640;23.372;2023-05-07T13:58:29;3.83;;;3.30;;
69369;SDS011;56530;42.640;23.372;2023-05-07T14:00:55;4.70;;;3.38;;
69369;SDS011;56530;42.640;23.372;2023-05-07T14:03:20;4.13;;;3.70;;
69369;SDS011;56530;42.640;23.372;2023-05-07T14:05:45;4.57;;;3.00;;
69369;SDS011;56530;42.640;23.372;2023-05-07T14:08:11;7.47;;;3.53;;
69369;SDS011;56530;42.640;23.372;2023-05-07T14:10:38;4.72;;;3.25;;
69369;SDS011;56530;42.640;23.372;2023-05-07T14:13:04;3.75;;;3.25;;
69369;SDS011;56530;42.640;23.372;2023-05-07T14:15:30;5.33;;;3.30;;
69369;SDS011;56530;42.640;23.372;2023-05-07T14:17:57;5.47;;;2.95;;
69369;SDS011;56530;42.640;23.372;2023-05-07T14:20:23;4.43;;;4.00;;
69369;SDS011;56530;42.640;23.372;2023-05-07T14:22:49;3.20;;;2.95;;
69369;SDS011;56530;42.640;23.372;2023-05-07T14:25:15;6.00;;;3.53;;
69369;SDS011;56530;42.640;23.372;2023-05-07T14:27:40;3.28;;;2.70;;
69369;SDS011;56530;42.640;23.372;2023-05-07T14:30:06;4.20;;;2.53;;
69369;SDS011;56530;42.640;23.372;2023-05-07T14:32:32;3.92;;;2.97;;
69369;SDS011;56530;42.640;23.372;2023-05-07T14:34:58;5.38;;;3.17;;
69369;SDS011;56530;42.640;23.372;2023-05-07T14:37:23;4.77;;;3.00;;
69369;SDS011;56530;42.640;23.372;2023-05-07T14:39:49;4.22;;;3.10;;
69369;SDS011;56530;42.640;23.372;2023-05-07T14:42:14;4.40;;;3.47;;
69369;SDS011;56530;42.640;23.372;2023-05-07T14:44:39;4.97;;;3.20;;
69369;SDS011;56530;42.640;23.372;2023-05-07T14:47:09;3.80;;;3.42;;